createdAt,value
2023-02-26T00:01:42.166Z,44.38
2023-02-26T00:04:10.811Z,43.25
2023-02-26T00:06:53.224Z,48.58
2023-02-26T00:09:24.402Z,34.55
2023-02-26T00:11:52.381Z,42.72
2023-02-26T00:14:21.553Z,38.17
2023-02-26T00:17:18.205Z,49.90
2023-02-26T00:19:46.167Z,39.63
2023-02-26T00:22:14.204Z,44.50
2023-02-26T00:24:42.401Z,46.35
2023-02-26T00:27:11.789Z,40.13
2023-02-26T00:29:40.041Z,42.05
2023-02-26T00:32:08.133Z,46.78
2023-02-26T00:34:37.354Z,47.05
2023-02-26T00:37:07.116Z,40.00
2023-02-26T00:39:46.613Z,45.05
2023-02-26T00:42:15.113Z,52.65
2023-02-26T00:44:44.637Z,39.33
2023-02-26T00:47:30.455Z,41.20
2023-02-26T00:50:14.101Z,40.10
2023-02-26T00:53:02.397Z,41.30
2023-02-26T00:55:31.302Z,41.35
2023-02-26T00:57:58.987Z,48.20
2023-02-26T01:00:27.109Z,36.80
2023-02-26T01:02:55.203Z,56.65
2023-02-26T01:05:23.233Z,41.20
2023-02-26T01:07:54.531Z,42.60
2023-02-26T01:10:22.802Z,36.97
2023-02-26T01:12:54.105Z,38.17
2023-02-26T01:15:22.227Z,49.72
2023-02-26T01:18:14.298Z,36.70
2023-02-26T01:20:56.788Z,37.85
2023-02-26T01:23:35.508Z,37.85
2023-02-26T01:26:10.702Z,39.43
2023-02-26T01:28:38.856Z,41.15
2023-02-26T01:31:15.805Z,49.20
2023-02-26T01:33:51.627Z,44.05
2023-02-26T01:36:25.354Z,41.83
2023-02-26T01:39:06.487Z,44.35
2023-02-26T01:41:36.853Z,38.15
2023-02-26T01:44:25.522Z,44.03
2023-02-26T01:47:05.595Z,37.10
2023-02-26T01:49:35.271Z,44.00
2023-02-26T01:52:08.286Z,45.63
2023-02-26T01:54:39.270Z,61.28
2023-02-26T01:57:18.700Z,49.83
2023-02-26T01:59:51.330Z,41.95
2023-02-26T02:02:23.122Z,53.70
2023-02-26T02:04:51.564Z,42.13
2023-02-26T02:07:20.731Z,39.75
2023-02-26T02:09:48.588Z,37.55
2023-02-26T02:12:35.789Z,42.00
2023-02-26T02:15:17.051Z,46.58
2023-02-26T02:18:08.802Z,47.00
2023-02-26T02:21:16.795Z,38.97
2023-02-26T02:24:11.760Z,43.03
2023-02-26T02:26:59.138Z,40.15
2023-02-26T02:29:45.252Z,43.20
2023-02-26T02:32:31.111Z,42.17
2023-02-26T02:35:12.936Z,40.78
2023-02-26T02:37:58.946Z,42.33
2023-02-26T02:40:39.445Z,47.80
2023-02-26T02:43:15.042Z,45.00
2023-02-26T02:45:54.571Z,43.65
2023-02-26T02:48:32.354Z,52.20
2023-02-26T02:51:09.997Z,51.88
2023-02-26T02:53:48.208Z,51.38
2023-02-26T02:56:21.633Z,48.63
2023-02-26T02:58:56.136Z,45.83
2023-02-26T03:01:27.807Z,46.53
2023-02-26T03:04:02.662Z,40.17
2023-02-26T03:06:32.690Z,39.25
2023-02-26T03:09:09.620Z,45.63
2023-02-26T03:11:41.977Z,41.20
2023-02-26T03:14:10.827Z,41.90
2023-02-26T03:17:02.241Z,41.35
2023-02-26T03:19:57.980Z,42.97
2023-02-26T03:23:09.388Z,47.03
2023-02-26T03:26:01.094Z,39.75
2023-02-26T03:28:44.327Z,39.70
2023-02-26T03:31:23.354Z,46.90
2023-02-26T03:33:50.937Z,37.78
2023-02-26T03:36:25.969Z,45.55
2023-02-26T03:39:07.764Z,40.85
2023-02-26T03:41:44.362Z,45.03
2023-02-26T03:44:24.510Z,44.45
2023-02-26T03:46:58.774Z,73.30
2023-02-26T03:49:42.310Z,44.75
2023-02-26T03:52:12.483Z,40.80
2023-02-26T03:55:19.407Z,57.17
2023-02-26T03:57:53.976Z,40.97
2023-02-26T04:00:30.335Z,37.00
2023-02-26T04:03:33.244Z,45.85
2023-02-26T04:06:02.099Z,42.85
2023-02-26T04:08:33.286Z,44.42
2023-02-26T04:11:09.218Z,46.83
2023-02-26T04:13:38.413Z,44.53
2023-02-26T04:16:06.796Z,42.78
2023-02-26T04:18:34.472Z,46.70
2023-02-26T04:21:02.917Z,47.40
2023-02-26T04:23:30.930Z,50.50
2023-02-26T04:25:59.487Z,53.50
2023-02-26T04:28:27.783Z,53.35
2023-02-26T04:30:57.999Z,54.97
2023-02-26T04:33:27.024Z,62.30
2023-02-26T04:35:54.552Z,69.80
2023-02-26T04:38:22.326Z,75.85
2023-02-26T04:40:51.023Z,68.30
2023-02-26T04:43:20.075Z,62.60
2023-02-26T04:46:17.377Z,59.70
2023-02-26T04:48:45.051Z,58.65
2023-02-26T04:51:12.743Z,57.67
2023-02-26T04:53:40.717Z,65.00
2023-02-26T04:56:08.380Z,60.58
2023-02-26T04:58:36.174Z,56.80
2023-02-26T05:01:13.757Z,61.53
2023-02-26T05:03:41.470Z,62.55
2023-02-26T05:06:09.279Z,57.33
2023-02-26T05:08:42.328Z,52.35
2023-02-26T05:11:11.400Z,54.15
2023-02-26T05:13:39.717Z,52.05
2023-02-26T05:16:08.345Z,55.00
2023-02-26T05:21:05.722Z,54.65
2023-02-26T05:23:34.821Z,54.28
2023-02-26T05:26:02.614Z,70.18
2023-02-26T05:28:31.358Z,48.38
2023-02-26T05:30:59.138Z,48.05
2023-02-26T05:33:27.226Z,44.10
2023-02-26T05:35:55.308Z,47.38
2023-02-26T05:38:23.195Z,47.10
2023-02-26T05:40:50.878Z,55.95
2023-02-26T05:43:18.681Z,50.58
2023-02-26T05:45:47.136Z,44.67
2023-02-26T05:48:17.818Z,54.22
2023-02-26T05:50:45.556Z,39.45
2023-02-26T05:53:12.930Z,47.17
2023-02-26T05:55:41.184Z,48.13
2023-02-26T05:58:11.347Z,45.13
2023-02-26T06:00:39.369Z,46.80
2023-02-26T06:03:08.404Z,47.17
2023-02-26T06:05:39.582Z,45.70
2023-02-26T06:08:07.412Z,46.00
2023-02-26T06:10:35.100Z,46.45
2023-02-26T06:13:03.124Z,45.75
2023-02-26T06:15:30.742Z,45.65
2023-02-26T06:17:58.663Z,43.60
2023-02-26T06:20:26.181Z,46.50
2023-02-26T06:22:54.474Z,40.42
2023-02-26T06:25:22.769Z,39.95
2023-02-26T06:27:50.495Z,39.25
2023-02-26T06:30:18.606Z,42.35
2023-02-26T06:32:47.289Z,40.03
2023-02-26T06:35:15.120Z,40.38
2023-02-26T06:37:43.297Z,38.75
2023-02-26T06:40:12.082Z,40.13
2023-02-26T06:42:39.724Z,41.70
2023-02-26T06:45:08.015Z,40.55
2023-02-26T06:47:35.851Z,41.90
2023-02-26T06:50:04.304Z,38.90
2023-02-26T06:52:33.216Z,35.10
2023-02-26T06:55:03.945Z,32.83
2023-02-26T06:57:31.909Z,33.28
2023-02-26T07:00:01.161Z,36.75
2023-02-26T07:02:29.191Z,33.92
2023-02-26T07:04:57.754Z,39.33
2023-02-26T07:07:25.861Z,39.00
2023-02-26T07:09:53.500Z,35.40
2023-02-26T07:12:21.057Z,47.83
2023-02-26T07:14:49.455Z,37.30
2023-02-26T07:17:21.520Z,40.72
2023-02-26T07:19:50.957Z,37.72
2023-02-26T07:22:21.870Z,35.50
2023-02-26T07:24:51.361Z,30.20
2023-02-26T07:27:19.387Z,37.55
2023-02-26T07:29:52.405Z,43.13
2023-02-26T07:32:20.284Z,36.60
2023-02-26T07:34:48.092Z,34.05
2023-02-26T07:37:15.875Z,37.65
2023-02-26T07:39:43.773Z,32.53
2023-02-26T07:42:13.007Z,42.17
2023-02-26T07:44:43.648Z,40.40
2023-02-26T07:47:12.144Z,33.95
2023-02-26T07:49:40.213Z,39.15
2023-02-26T07:52:14.815Z,35.00
2023-02-26T07:54:42.700Z,31.42
2023-02-26T07:57:12.539Z,30.55
2023-02-26T07:59:40.770Z,27.45
2023-02-26T08:02:08.397Z,41.17
2023-02-26T08:04:36.572Z,29.50
2023-02-26T08:07:04.540Z,29.58
2023-02-26T08:09:33.275Z,29.60
2023-02-26T08:12:01.405Z,27.90
2023-02-26T08:14:29.102Z,33.72
2023-02-26T08:16:56.794Z,28.13
2023-02-26T08:19:24.497Z,27.30
2023-02-26T08:21:55.352Z,27.92
2023-02-26T08:24:23.099Z,36.78
2023-02-26T08:26:51.770Z,38.00
2023-02-26T08:29:20.419Z,43.05
2023-02-26T08:31:49.244Z,39.85
2023-02-26T08:34:17.614Z,30.88
2023-02-26T08:36:45.438Z,21.48
2023-02-26T08:39:13.101Z,19.42
2023-02-26T08:41:40.894Z,20.40
2023-02-26T08:44:08.489Z,19.50
2023-02-26T08:46:37.096Z,18.35
2023-02-26T08:49:04.751Z,20.17
2023-02-26T08:51:33.650Z,20.00
2023-02-26T08:54:01.387Z,21.50
2023-02-26T08:56:29.917Z,20.35
2023-02-26T08:58:57.536Z,17.42
2023-02-26T09:01:25.509Z,21.35
2023-02-26T09:03:53.413Z,18.00
2023-02-26T09:06:20.976Z,21.15
2023-02-26T09:08:49.471Z,22.50
2023-02-26T09:11:17.186Z,19.47
2023-02-26T09:13:44.958Z,18.52
2023-02-26T09:16:13.516Z,20.50
2023-02-26T09:18:42.543Z,24.77
2023-02-26T09:21:10.480Z,23.88
2023-02-26T09:23:38.140Z,21.15
2023-02-26T09:26:08.978Z,25.52
2023-02-26T09:28:36.820Z,23.35
2023-02-26T09:31:08.246Z,25.92
2023-02-26T09:33:36.699Z,34.47
2023-02-26T09:36:05.029Z,27.63
2023-02-26T09:38:32.615Z,29.15
2023-02-26T09:41:08.514Z,30.75
2023-02-26T09:43:58.749Z,26.23
2023-02-26T09:46:34.045Z,23.48
2023-02-26T09:49:28.906Z,22.23
2023-02-26T09:52:04.804Z,19.13
2023-02-26T09:54:41.794Z,16.83
2023-02-26T09:57:14.128Z,18.95
2023-02-26T09:59:42.389Z,21.80
2023-02-26T10:02:21.401Z,22.40
2023-02-26T10:05:00.356Z,17.20
2023-02-26T10:07:42.560Z,17.95
2023-02-26T10:10:35.528Z,17.33
2023-02-26T10:13:36.834Z,19.33
2023-02-26T10:16:14.886Z,20.25
2023-02-26T10:18:54.042Z,21.02
2023-02-26T10:21:46.811Z,20.23
2023-02-26T10:24:22.794Z,24.48
2023-02-26T10:27:10.266Z,24.48
2023-02-26T10:29:48.296Z,21.20
2023-02-26T10:32:38.930Z,18.38
2023-02-26T10:35:12.412Z,19.13
2023-02-26T10:38:02.990Z,17.52
2023-02-26T10:40:42.666Z,21.90
2023-02-26T10:43:16.880Z,17.08
2023-02-26T10:46:00.675Z,17.83
2023-02-26T10:49:18.912Z,22.02
2023-02-26T10:51:47.462Z,16.58
2023-02-26T10:54:24.908Z,20.08
2023-02-26T10:56:52.714Z,19.85
2023-02-26T10:59:21.928Z,23.98
2023-02-26T11:01:51.191Z,24.10
2023-02-26T11:04:23.579Z,23.83
2023-02-26T11:06:55.113Z,28.95
2023-02-26T11:09:26.926Z,23.73
2023-02-26T11:12:01.831Z,23.42
2023-02-26T11:14:32.960Z,21.83
2023-02-26T11:17:11.103Z,27.77
2023-02-26T11:19:49.908Z,33.10
2023-02-26T11:22:18.684Z,29.27
2023-02-26T11:24:49.020Z,24.05
2023-02-26T11:27:24.159Z,23.88
2023-02-26T11:30:03.729Z,27.63
2023-02-26T11:32:33.994Z,25.98
2023-02-26T11:35:08.939Z,25.63
2023-02-26T11:37:42.314Z,26.67
2023-02-26T11:40:22.236Z,21.73
2023-02-26T11:42:55.165Z,25.40
2023-02-26T11:45:23.014Z,29.33
2023-02-26T11:48:02.430Z,29.10
2023-02-26T11:50:34.579Z,31.13
2023-02-26T11:53:08.439Z,32.45
2023-02-26T11:55:48.285Z,32.42
2023-02-26T11:58:23.548Z,28.75
2023-02-26T12:00:57.952Z,29.00
2023-02-26T12:03:33.445Z,27.65
2023-02-26T12:06:04.861Z,31.52
2023-02-26T12:08:38.655Z,23.42
2023-02-26T12:11:31.528Z,25.55
2023-02-26T12:14:13.909Z,30.55
2023-02-26T12:17:07.219Z,27.73
2023-02-26T12:19:42.628Z,27.17
2023-02-26T12:22:35.413Z,23.20
2023-02-26T12:25:14.896Z,25.85
2023-02-26T12:31:27.765Z,25.60
2023-02-26T12:34:23.609Z,24.23
2023-02-26T12:37:10.037Z,29.50
2023-02-26T12:39:56.144Z,28.05
2023-02-26T12:42:45.382Z,27.98
2023-02-26T12:45:53.940Z,27.20
2023-02-26T12:48:54.814Z,30.25
2023-02-26T12:51:49.250Z,27.95
2023-02-26T12:54:50.683Z,27.65
2023-02-26T12:57:24.087Z,26.95
2023-02-26T13:00:18.917Z,26.02
2023-02-26T13:03:15.041Z,21.95
2023-02-26T13:06:01.335Z,21.13
2023-02-26T13:09:04.058Z,22.85
2023-02-26T13:11:59.099Z,24.55
2023-02-26T13:15:05.172Z,26.50
2023-02-26T13:17:44.556Z,26.25
2023-02-26T13:20:22.312Z,24.55
2023-02-26T13:23:02.073Z,29.23
2023-02-26T13:25:39.251Z,26.95
2023-02-26T13:28:30.995Z,35.38
2023-02-26T13:31:00.882Z,29.08
2023-02-26T13:33:31.931Z,27.25
2023-02-26T13:36:01.501Z,32.97
2023-02-26T13:38:46.763Z,29.35
2023-02-26T13:41:38.329Z,31.60
2023-02-26T13:44:39.117Z,24.52
2023-02-26T13:47:30.024Z,30.13
2023-02-26T13:50:30.798Z,30.50
2023-02-26T13:53:25.030Z,28.00
2023-02-26T13:55:54.342Z,28.63
2023-02-26T13:58:24.845Z,36.75
2023-02-26T14:01:25.787Z,29.90
2023-02-26T14:04:09.551Z,29.63
2023-02-26T14:06:43.661Z,32.55
2023-02-26T14:09:23.631Z,24.70
2023-02-26T14:12:02.799Z,31.48
2023-02-26T14:14:35.653Z,30.67
2023-02-26T14:17:07.317Z,25.52
2023-02-26T14:19:39.068Z,21.58
2023-02-26T14:22:23.891Z,20.80
2023-02-26T14:24:56.787Z,28.23
2023-02-26T14:27:35.910Z,22.48
2023-02-26T14:30:09.607Z,26.27
2023-02-26T14:32:55.099Z,33.67
2023-02-26T14:35:30.017Z,21.85
2023-02-26T14:38:16.872Z,26.92
2023-02-26T14:40:50.636Z,27.30
2023-02-26T14:43:37.573Z,26.73
2023-02-26T14:46:07.123Z,30.40
2023-02-26T14:48:39.657Z,32.53
2023-02-26T14:51:27.191Z,33.03
2023-02-26T14:54:04.295Z,33.58
2023-02-26T14:56:50.594Z,30.40
2023-02-26T14:59:46.228Z,29.30
2023-02-26T15:02:27.139Z,30.17
2023-02-26T15:04:57.551Z,26.52
2023-02-26T15:07:45.582Z,29.13
2023-02-26T15:10:46.124Z,24.75
2023-02-26T15:13:23.156Z,32.30
2023-02-26T15:16:00.888Z,36.13
2023-02-26T15:18:34.495Z,35.00
2023-02-26T15:21:07.726Z,35.63
2023-02-26T15:23:41.033Z,35.33
2023-02-26T15:26:18.581Z,31.05
2023-02-26T15:28:49.186Z,31.02
2023-02-26T15:31:20.948Z,31.85
2023-02-26T15:33:50.034Z,30.50
2023-02-26T15:36:22.082Z,33.00
2023-02-26T15:39:01.073Z,35.13
2023-02-26T15:41:31.606Z,34.92
2023-02-26T15:44:10.777Z,35.05
2023-02-26T15:49:15.870Z,36.95
2023-02-26T15:51:45.100Z,34.28
2023-02-26T15:54:22.553Z,32.97
2023-02-26T15:56:54.869Z,35.25
2023-02-26T15:59:29.125Z,31.23
2023-02-26T16:01:56.873Z,35.58
2023-02-26T16:04:25.066Z,33.28
2023-02-26T16:06:57.251Z,31.45
2023-02-26T16:09:34.933Z,43.05
2023-02-26T16:12:10.826Z,39.22
2023-02-26T16:14:42.400Z,47.45
2023-02-26T16:17:19.145Z,45.55
2023-02-26T16:19:50.588Z,47.78
2023-02-26T16:22:24.182Z,39.13
2023-02-26T16:25:25.447Z,39.63
2023-02-26T16:28:04.825Z,41.40
2023-02-26T16:33:13.839Z,35.55
2023-02-26T16:35:53.799Z,38.28
2023-02-26T16:38:46.221Z,45.00
2023-02-26T16:41:14.717Z,41.17
2023-02-26T16:43:45.466Z,40.35
2023-02-26T16:46:38.230Z,39.15
2023-02-26T16:49:22.939Z,45.53
2023-02-26T16:51:52.083Z,47.15
2023-02-26T16:54:27.424Z,47.45
2023-02-26T16:57:13.531Z,53.30
2023-02-26T16:59:45.371Z,56.17
2023-02-26T17:02:18.626Z,41.80
2023-02-26T17:04:52.754Z,53.63
2023-02-26T17:07:25.540Z,43.75
2023-02-26T17:09:58.568Z,47.15
2023-02-26T17:12:46.677Z,43.28
2023-02-26T17:15:19.190Z,48.00
2023-02-26T17:17:51.500Z,43.85
2023-02-26T17:20:19.415Z,39.20
2023-02-26T17:22:47.022Z,41.90
2023-02-26T17:25:20.903Z,45.25
2023-02-26T17:27:49.128Z,37.95
2023-02-26T17:30:20.469Z,40.83
2023-02-26T17:32:48.366Z,32.28
2023-02-26T17:35:20.521Z,34.65
2023-02-26T17:37:49.158Z,37.88
2023-02-26T17:40:25.276Z,29.50
2023-02-26T17:42:53.717Z,43.00
2023-02-26T17:45:21.885Z,32.85
2023-02-26T17:47:50.431Z,34.97
2023-02-26T17:50:40.419Z,36.47
2023-02-26T17:53:11.597Z,38.65
2023-02-26T17:55:40.299Z,33.95
2023-02-26T17:58:22.641Z,33.67
2023-02-26T18:00:53.323Z,40.28
2023-02-26T18:03:21.226Z,35.45
2023-02-26T18:05:50.829Z,29.70
2023-02-26T18:08:23.850Z,28.20
2023-02-26T18:10:52.779Z,26.85
2023-02-26T18:13:22.087Z,27.02
2023-02-26T18:15:51.008Z,20.17
2023-02-26T18:18:21.296Z,18.55
2023-02-26T18:20:49.017Z,16.25
2023-02-26T18:23:38.247Z,20.13
2023-02-26T18:26:06.200Z,19.52
2023-02-26T18:28:34.958Z,24.05
2023-02-26T18:31:08.643Z,16.52
2023-02-26T18:33:41.505Z,16.55
2023-02-26T18:36:24.265Z,22.55
2023-02-26T18:38:51.938Z,41.50
2023-02-26T18:41:19.564Z,43.50
2023-02-26T18:43:47.394Z,34.63
2023-02-26T18:46:15.230Z,22.90
2023-02-26T18:48:42.833Z,24.60
2023-02-26T18:51:11.405Z,20.17
2023-02-26T18:53:39.515Z,18.83
2023-02-26T18:56:09.239Z,29.98
2023-02-26T18:58:40.289Z,21.02
2023-02-26T19:01:13.266Z,19.55
2023-02-26T19:03:40.963Z,16.15
2023-02-26T19:06:12.562Z,20.48
2023-02-26T19:08:41.903Z,14.57
2023-02-26T19:11:09.425Z,22.38
2023-02-26T19:13:38.032Z,30.98
2023-02-26T19:16:05.999Z,29.55
2023-02-26T19:18:33.629Z,41.67
2023-02-26T19:21:02.585Z,37.97
2023-02-26T19:23:32.795Z,35.00
2023-02-26T19:26:00.408Z,37.15
2023-02-26T19:28:27.992Z,37.00
2023-02-26T19:30:55.723Z,36.45
2023-02-26T19:33:24.645Z,28.63
2023-02-26T19:35:52.924Z,38.67
2023-02-26T19:38:20.464Z,32.70
2023-02-26T19:40:48.495Z,24.23
2023-02-26T19:43:16.120Z,30.15
2023-02-26T19:45:43.767Z,38.95
2023-02-26T19:48:14.598Z,42.90
2023-02-26T19:50:42.586Z,38.42
2023-02-26T19:53:10.215Z,50.67
2023-02-26T19:55:38.976Z,50.28
2023-02-26T19:58:09.123Z,54.15
2023-02-26T20:00:37.064Z,64.35
2023-02-26T20:03:04.908Z,78.65
2023-02-26T20:05:32.983Z,73.93
2023-02-26T20:08:00.619Z,82.18
2023-02-26T20:10:29.310Z,84.55
2023-02-26T20:12:58.408Z,75.32
2023-02-26T20:15:25.929Z,73.13
2023-02-26T20:17:53.496Z,62.17
2023-02-26T20:20:23.102Z,43.97
2023-02-26T20:22:50.737Z,43.17
2023-02-26T20:25:20.001Z,48.65
2023-02-26T20:27:47.652Z,46.00
2023-02-26T20:30:15.724Z,49.33
2023-02-26T20:32:43.619Z,43.33
2023-02-26T20:35:11.333Z,47.00
2023-02-26T20:37:40.145Z,39.50
2023-02-26T20:40:10.525Z,40.58
2023-02-26T20:42:38.973Z,42.60
2023-02-26T20:45:09.503Z,45.30
2023-02-26T20:47:39.801Z,35.42
2023-02-26T20:50:07.944Z,32.83
2023-02-26T20:52:37.644Z,30.40
2023-02-26T20:55:06.149Z,30.45
2023-02-26T20:57:35.439Z,33.63
2023-02-26T21:00:10.430Z,33.85
2023-02-26T21:02:38.674Z,27.67
2023-02-26T21:05:07.443Z,28.90
2023-02-26T21:07:39.506Z,29.55
2023-02-26T21:10:10.981Z,29.45
2023-02-26T21:12:39.254Z,27.60
2023-02-26T21:15:11.327Z,35.78
2023-02-26T21:17:41.033Z,28.63
2023-02-26T21:20:18.258Z,26.73
2023-02-26T21:22:46.785Z,29.42
2023-02-26T21:25:14.536Z,27.73
2023-02-26T21:27:42.448Z,24.30
2023-02-26T21:30:12.097Z,24.27
2023-02-26T21:32:40.895Z,23.00
2023-02-26T21:35:16.086Z,19.10
2023-02-26T21:37:45.609Z,19.55
2023-02-26T21:40:14.851Z,18.60
2023-02-26T21:42:43.426Z,18.65
2023-02-26T21:45:12.317Z,22.55
2023-02-26T21:47:39.992Z,20.13
2023-02-26T21:50:10.712Z,21.20
2023-02-26T21:52:41.639Z,17.35
2023-02-26T21:55:09.851Z,21.90
2023-02-26T21:57:37.408Z,17.27
2023-02-26T22:00:06.491Z,22.08
2023-02-26T22:02:39.814Z,25.52
2023-02-26T22:05:07.709Z,26.85
2023-02-26T22:07:35.857Z,17.20
2023-02-26T22:10:05.070Z,78.85
2023-02-26T22:12:33.656Z,25.50
2023-02-26T22:15:01.267Z,17.98
2023-02-26T22:17:31.227Z,18.42
2023-02-26T22:19:58.961Z,16.33
2023-02-26T22:22:27.104Z,17.25
2023-02-26T22:24:55.187Z,19.35
2023-02-26T22:27:23.331Z,21.13
2023-02-26T22:29:51.039Z,22.85
2023-02-26T22:32:18.893Z,26.60
2023-02-26T22:34:46.924Z,26.48
2023-02-26T22:37:14.669Z,27.42
2023-02-26T22:39:42.674Z,27.40
2023-02-26T22:42:10.478Z,22.10
2023-02-26T22:44:38.128Z,24.10
2023-02-26T22:47:05.825Z,25.25
2023-02-26T22:49:33.663Z,26.85
2023-02-26T22:52:01.216Z,27.17
2023-02-26T22:54:28.834Z,25.98
2023-02-26T22:56:57.206Z,31.48
2023-02-26T22:59:25.217Z,28.88
2023-02-26T23:01:53.589Z,31.30
2023-02-26T23:04:21.695Z,33.42
2023-02-26T23:06:49.295Z,38.90
2023-02-26T23:09:18.199Z,35.43
2023-02-26T23:11:46.581Z,32.63
2023-02-26T23:14:14.495Z,29.77
2023-02-26T23:16:47.497Z,23.67
2023-02-26T23:19:15.394Z,23.35
2023-02-26T23:21:43.236Z,22.63
2023-02-26T23:24:10.956Z,22.50
2023-02-26T23:26:38.689Z,20.23
2023-02-26T23:29:09.857Z,19.80
2023-02-26T23:31:37.688Z,22.05
2023-02-26T23:34:07.092Z,24.45
2023-02-26T23:36:35.943Z,17.17
2023-02-26T23:39:04.110Z,18.98
2023-02-26T23:41:32.728Z,19.60
2023-02-26T23:44:00.398Z,20.50
2023-02-26T23:46:29.583Z,23.10
2023-02-26T23:48:58.236Z,18.65
2023-02-26T23:51:27.763Z,21.70
2023-02-26T23:53:55.822Z,18.42
2023-02-26T23:56:23.967Z,31.27
2023-02-26T23:58:52.512Z,34.13
